Time;durP1;ratioP1;P1;durP2;ratioP2;P2;SDS_P1;SDS_P2;PMS_P1;PMS_P2;Temp;Humidity;BMP_temperature;BMP_pressure;BME280_temperature;BME280_humidity;BME280_pressure;Samples;Min_cycle;Max_cycle;Signal;HPM_P1;HPM_P2
2022/10/23 00:01:17;;;;;;;19.77;13.00;;;21.50;91.60;;;;;;5017632;28;20112;-74
2022/10/23 00:03:44;;;;;;;38.22;13.95;;;21.40;91.60;;;;;;5035303;28;20509;-74
2022/10/23 00:06:11;;;;;;;14.80;11.68;;;21.40;91.60;;;;;;5001305;28;20171;-73
2022/10/23 00:08:37;;;;;;;14.98;10.95;;;21.40;91.70;;;;;;5035195;28;20021;-74
2022/10/23 00:11:07;;;;;;;15.93;11.90;;;21.40;91.70;;;;;;5035239;28;20340;-73
2022/10/23 00:13:33;;;;;;;17.42;11.80;;;21.30;91.70;;;;;;5035036;28;20036;-74
2022/10/23 00:15:59;;;;;;;18.65;12.65;;;21.30;91.80;;;;;;5034978;28;20026;-74
2022/10/23 00:18:24;;;;;;;19.15;11.73;;;21.30;91.90;;;;;;5035089;28;20569;-73
2022/10/23 00:20:50;;;;;;;22.25;12.95;;;21.30;91.90;;;;;;5035077;28;20029;-75
2022/10/23 00:23:16;;;;;;;20.35;13.32;;;21.30;91.90;;;;;;5034764;28;20033;-74
2022/10/23 00:25:42;;;;;;;17.52;12.57;;;21.30;91.90;;;;;;5034276;28;20033;-74
2022/10/23 00:28:08;;;;;;;22.75;12.20;;;21.20;92.00;;;;;;5034978;28;20454;-73
2022/10/23 00:30:33;;;;;;;21.15;13.13;;;21.20;91.90;;;;;;5016910;28;20041;-75
2022/10/23 00:32:59;;;;;;;17.67;12.32;;;21.20;92.20;;;;;;5034992;28;20021;-74
2022/10/23 00:35:25;;;;;;;15.88;11.32;;;21.20;92.10;;;;;;5034970;28;20029;-75
2022/10/23 00:37:50;;;;;;;15.68;12.02;;;21.20;92.10;;;;;;5034794;28;20076;-75
2022/10/23 00:40:16;;;;;;;18.13;12.30;;;21.20;92.10;;;;;;5016903;28;20037;-74
2022/10/23 00:42:42;;;;;;;21.35;12.45;;;21.20;92.00;;;;;;5034535;28;20134;-74
2022/10/23 00:45:25;;;;;;;18.48;12.55;;;21.20;92.00;;;;;;5034349;28;20060;-75
2022/10/23 00:47:51;;;;;;;17.77;12.70;;;21.20;92.20;;;;;;5016976;28;20037;-75
2022/10/23 00:50:20;;;;;;;16.67;12.38;;;21.20;92.00;;;;;;5034739;28;20264;-74
2022/10/23 00:52:49;;;;;;;19.45;11.43;;;21.20;92.20;;;;;;5034798;28;20025;-75
2022/10/23 00:55:16;;;;;;;20.42;12.93;;;21.10;91.90;;;;;;5016490;28;20379;-74
2022/10/23 00:57:44;;;;;;;19.50;12.15;;;21.00;91.90;;;;;;5034279;28;20445;-74
2022/10/23 01:00:26;;;;;;;19.50;13.05;;;20.90;92.10;;;;;;5016378;28;20088;-74
2022/10/23 01:02:53;;;;;;;16.98;11.50;;;20.90;92.20;;;;;;5033970;28;20040;-73
2022/10/23 01:05:25;;;;;;;20.00;12.50;;;20.90;92.10;;;;;;5016029;28;20022;-75
2022/10/23 01:08:01;;;;;;;19.75;11.80;;;20.90;92.10;;;;;;5034295;28;20029;-74
2022/10/23 01:10:36;;;;;;;20.95;12.40;;;20.90;92.00;;;;;;5034064;28;20030;-74
2022/10/23 01:13:11;;;;;;;17.13;12.27;;;20.90;92.10;;;;;;5033898;28;20381;-75
2022/10/23 01:15:48;;;;;;;17.17;12.25;;;20.90;92.10;;;;;;5033774;28;20021;-74
2022/10/23 01:18:26;;;;;;;17.60;12.68;;;20.80;92.30;;;;;;5033927;28;20080;-73
2022/10/23 01:21:26;;;;;;;22.67;12.90;;;20.80;92.10;;;;;;5033842;28;20018;-74
2022/10/23 01:24:30;;;;;;;15.23;11.55;;;20.80;92.30;;;;;;5033627;28;20073;-75
2022/10/23 01:27:24;;;;;;;18.15;12.18;;;20.80;92.30;;;;;;5020738;28;20099;-75
2022/10/23 01:30:04;;;;;;;;;;;20.80;92.20;;;;;;5033983;28;20146;-76
2022/10/23 01:32:51;;;;;;;20.73;12.35;;;20.70;92.40;;;;;;5033730;28;19940;-73
2022/10/23 01:35:27;;;;;;;19.33;14.00;;;20.70;92.40;;;;;;5033503;28;20154;-75
2022/10/23 01:38:08;;;;;;;23.42;13.50;;;20.70;92.10;;;;;;5032862;28;20025;-75
2022/10/23 01:41:04;;;;;;;17.20;12.73;;;20.70;92.40;;;;;;5033455;28;20029;-74
2022/10/23 01:43:53;;;;;;;20.55;12.57;;;20.70;92.40;;;;;;5033449;28;20022;-75
2022/10/23 01:46:20;;;;;;;15.85;12.05;;;20.70;92.10;;;;;;5033625;28;20103;-74
2022/10/23 01:48:50;;;;;;;18.65;11.65;;;20.70;92.10;;;;;;5033233;28;20067;-74
2022/10/23 01:51:17;;;;;;;19.75;12.43;;;20.60;92.10;;;;;;5033117;28;20088;-74
2022/10/23 01:53:47;;;;;;;17.50;11.70;;;20.60;92.10;;;;;;5033094;28;20021;-74
2022/10/23 01:56:16;;;;;;;20.38;12.48;;;20.60;92.30;;;;;;5032913;28;20040;-75
2022/10/23 01:58:46;;;;;;;20.65;11.93;;;20.50;92.30;;;;;;5032958;28;20549;-74
2022/10/23 02:01:15;;;;;;;19.00;12.38;;;20.50;92.40;;;;;;5032921;28;20052;-74
2022/10/23 02:03:42;;;;;;;19.08;12.20;;;20.60;92.40;;;;;;5033876;28;20044;-75
2022/10/23 02:06:08;;;;;;;16.42;11.70;;;20.60;92.30;;;;;;5034309;28;20028;-74
2022/10/23 02:08:34;;;;;;;20.02;12.07;;;20.60;92.40;;;;;;5016675;28;20390;-74
2022/10/23 02:11:08;;;;;;;21.80;11.73;;;20.60;92.30;;;;;;5033225;28;20032;-73
2022/10/23 02:14:03;;;;;;;;;;;20.60;92.30;;;;;;5033467;28;20037;-75
2022/10/23 02:16:51;;;;;;;16.63;10.90;;;20.60;92.50;;;;;;5014188;28;19906;-74
2022/10/23 02:19:37;;;;;;;17.10;11.05;;;20.60;92.40;;;;;;5033768;28;20044;-74
2022/10/23 02:22:11;;;;;;;17.95;11.45;;;20.70;92.50;;;;;;5033209;28;20045;-74
2022/10/23 02:24:57;;;;;;;16.23;12.40;;;20.60;92.50;;;;;;5032839;28;20034;-73
2022/10/23 02:27:29;;;;;;;18.08;12.20;;;20.60;92.50;;;;;;5015155;28;20029;-73
2022/10/23 02:30:09;;;;;;;15.35;11.05;;;20.60;92.30;;;;;;5033263;28;20026;-76
2022/10/23 02:32:38;;;;;;;23.55;11.48;;;20.50;92.50;;;;;;5032807;28;20028;-74
2022/10/23 02:35:05;;;;;;;17.30;12.27;;;20.50;92.30;;;;;;5033013;28;20076;-73
2022/10/23 02:37:31;;;;;;;22.23;12.63;;;20.50;92.40;;;;;;5032748;28;20109;-72
2022/10/23 02:39:57;;;;;;;19.08;11.60;;;20.40;92.40;;;;;;5032871;28;20045;-74
2022/10/23 02:42:35;;;;;;;19.02;12.23;;;20.40;92.50;;;;;;5014793;28;20064;-74
2022/10/23 02:45:35;;;;;;;24.08;12.75;;;20.40;92.70;;;;;;5032647;28;20036;-74
2022/10/23 02:48:16;;;;;;;16.77;12.02;;;20.30;92.70;;;;;;5034004;28;20036;-75
2022/10/23 02:51:13;;;;;;;21.20;12.13;;;20.30;92.60;;;;;;5036731;28;20025;-74
2022/10/23 02:53:47;;;;;;;17.92;12.00;;;20.30;92.90;;;;;;5019444;28;20139;-75
2022/10/23 02:56:27;;;;;;;18.75;12.00;;;20.30;92.90;;;;;;5036410;28;20103;-74
2022/10/23 02:59:09;;;;;;;14.30;11.68;;;20.30;93.00;;;;;;5036446;28;20038;-74
2022/10/23 03:02:10;;;;;;;17.90;11.88;;;20.30;93.00;;;;;;5036193;28;20132;-74
2022/10/23 03:04:39;;;;;;;14.98;11.68;;;20.30;92.70;;;;;;4985607;28;20089;-74
2022/10/23 03:07:05;;;;;;;15.93;11.25;;;20.30;92.70;;;;;;5036345;28;20378;-74
2022/10/23 03:09:30;;;;;;;20.25;12.30;;;20.20;92.70;;;;;;5018435;28;20091;-73
2022/10/23 03:11:56;;;;;;;19.27;12.20;;;20.30;92.80;;;;;;5035950;28;20113;-74
2022/10/23 03:14:22;;;;;;;14.75;12.50;;;20.30;92.80;;;;;;5036272;28;20142;-74
2022/10/23 03:16:47;;;;;;;21.95;11.60;;;20.30;92.70;;;;;;5035956;28;20021;-75
2022/10/23 03:19:13;;;;;;;18.00;12.25;;;20.30;92.70;;;;;;5036036;28;20116;-74
2022/10/23 03:21:39;;;;;;;15.98;12.52;;;20.30;92.70;;;;;;5036001;28;20489;-74
2022/10/23 03:24:05;;;;;;;17.02;11.15;;;20.30;92.70;;;;;;5035831;28;20091;-74
2022/10/23 03:26:30;;;;;;;16.38;11.63;;;20.30;92.70;;;;;;5035704;28;20025;-75
2022/10/23 03:28:56;;;;;;;20.83;12.45;;;20.20;92.60;;;;;;5017990;28;20021;-73
2022/10/23 03:31:22;;;;;;;17.92;12.50;;;20.30;92.60;;;;;;5035857;28;20021;-74
2022/10/23 03:33:47;;;;;;;21.77;11.98;;;20.20;92.60;;;;;;5035998;28;20039;-73
2022/10/23 03:36:13;;;;;;;24.52;12.90;;;20.20;92.60;;;;;;5035532;28;20021;-74
2022/10/23 03:38:38;;;;;;;20.40;11.27;;;20.20;92.70;;;;;;5036608;28;20492;-74
2022/10/23 03:41:04;;;;;;;18.27;11.27;;;20.20;92.70;;;;;;5037450;28;20044;-73
2022/10/23 03:43:30;;;;;;;15.25;11.98;;;20.20;92.70;;;;;;5036172;28;20037;-73
2022/10/23 03:45:56;;;;;;;15.48;11.13;;;20.20;92.60;;;;;;5035858;28;20112;-74
2022/10/23 03:48:23;;;;;;;16.10;11.50;;;20.20;92.70;;;;;;5035561;28;20391;-73
2022/10/23 03:50:49;;;;;;;15.32;11.13;;;20.30;92.70;;;;;;5035603;28;20026;-73
2022/10/23 03:53:15;;;;;;;19.75;11.65;;;20.30;92.70;;;;;;5036087;28;20030;-74
2022/10/23 03:55:42;;;;;;;18.42;11.82;;;20.30;92.60;;;;;;5035268;28;20418;-73
2022/10/23 03:58:08;;;;;;;17.23;10.90;;;20.30;92.80;;;;;;5035179;28;20041;-74
2022/10/23 04:00:34;;;;;;;17.88;11.38;;;20.30;92.60;;;;;;5034332;28;20039;-74
2022/10/23 04:02:59;;;;;;;19.52;10.40;;;20.30;92.50;;;;;;5035040;28;20482;-73
2022/10/23 04:05:25;;;;;;;16.58;10.80;;;20.20;92.40;;;;;;5035111;28;20025;-73
2022/10/23 04:07:51;;;;;;;17.33;11.18;;;20.20;92.40;;;;;;5035223;28;20030;-73
2022/10/23 04:10:16;;;;;;;18.25;11.13;;;20.20;92.40;;;;;;5034862;28;20030;-74
2022/10/23 04:12:42;;;;;;;19.70;10.57;;;20.20;92.40;;;;;;5035008;28;20107;-74
2022/10/23 04:15:08;;;;;;;14.50;10.15;;;20.20;92.40;;;;;;5035125;28;20025;-73
2022/10/23 04:17:34;;;;;;;15.57;10.23;;;20.20;92.40;;;;;;5035044;28;20029;-73
2022/10/23 04:20:00;;;;;;;15.35;10.00;;;20.20;92.30;;;;;;5017127;28;20036;-74
2022/10/23 04:22:25;;;;;;;17.77;10.32;;;20.10;92.30;;;;;;5035118;28;20028;-74
2022/10/23 04:24:51;;;;;;;20.35;10.25;;;20.10;92.60;;;;;;5034770;28;20383;-73
2022/10/23 04:27:17;;;;;;;16.52;9.90;;;20.10;92.40;;;;;;5016899;28;20112;-73
2022/10/23 04:29:42;;;;;;;16.33;10.18;;;20.20;92.30;;;;;;5034825;28;20099;-73
2022/10/23 04:32:08;;;;;;;14.48;9.77;;;20.20;92.30;;;;;;5016864;28;20481;-74
2022/10/23 04:34:34;;;;;;;13.40;9.75;;;20.20;92.30;;;;;;5034598;28;20028;-74
2022/10/23 04:36:59;;;;;;;17.83;10.80;;;20.30;92.30;;;;;;5034323;28;20033;-75
2022/10/23 04:39:25;;;;;;;17.58;10.93;;;20.30;92.30;;;;;;5034295;28;20056;-73
2022/10/23 04:41:51;;;;;;;16.17;10.65;;;20.20;92.30;;;;;;5034549;28;20485;-75
2022/10/23 04:44:16;;;;;;;16.70;10.00;;;20.20;92.30;;;;;;5034571;28;20033;-74
2022/10/23 04:46:42;;;;;;;19.02;10.07;;;20.30;92.30;;;;;;5034331;28;20083;-74
2022/10/23 04:49:08;;;;;;;15.82;10.50;;;20.20;92.20;;;;;;5016542;28;20087;-73
2022/10/23 04:51:33;;;;;;;14.00;10.00;;;20.20;92.20;;;;;;5016460;28;20025;-74
2022/10/23 04:53:59;;;;;;;16.38;9.82;;;20.20;92.20;;;;;;5034454;28;20029;-72
2022/10/23 04:56:25;;;;;;;20.52;10.80;;;20.20;92.20;;;;;;5034203;28;20022;-73
2022/10/23 04:58:51;;;;;;;19.73;10.63;;;20.20;92.20;;;;;;5034175;28;20087;-73
2022/10/23 05:01:17;;;;;;;19.98;10.07;;;20.20;92.20;;;;;;5034273;28;20017;-74
2022/10/23 05:03:43;;;;;;;15.90;10.48;;;20.20;92.30;;;;;;5016153;28;20030;-72
2022/10/23 05:06:08;;;;;;;16.55;10.30;;;20.20;92.20;;;;;;5034088;28;20108;-74
2022/10/23 05:08:34;;;;;;;19.00;10.50;;;20.10;92.10;;;;;;5034228;28;20463;-74
2022/10/23 05:11:00;;;;;;;17.88;9.95;;;20.10;92.20;;;;;;5033795;28;20502;-73
2022/10/23 05:13:26;;;;;;;17.40;10.38;;;20.20;92.30;;;;;;5033745;28;20020;-73
2022/10/23 05:15:52;;;;;;;16.33;9.80;;;20.20;92.20;;;;;;5033998;28;20021;-73
2022/10/23 05:18:36;;;;;;;16.38;9.63;;;20.20;92.10;;;;;;5034064;28;20021;-74
2022/10/23 05:21:13;;;;;;;16.27;10.55;;;20.10;92.00;;;;;;5034124;28;20036;-73
2022/10/23 05:23:41;;;;;;;17.90;10.05;;;20.20;92.20;;;;;;5034083;28;20582;-73
2022/10/23 05:26:07;;;;;;;17.15;10.25;;;20.10;92.00;;;;;;5033941;28;20443;-73
2022/10/23 05:28:33;;;;;;;18.75;9.98;;;20.10;92.10;;;;;;5033877;28;20036;-73
2022/10/23 05:31:01;;;;;;;15.98;9.18;;;20.20;92.10;;;;;;5033592;28;20529;-74
2022/10/23 05:33:28;;;;;;;12.95;9.38;;;20.20;92.10;;;;;;5033311;28;20044;-73
2022/10/23 05:35:54;;;;;;;15.73;9.85;;;20.20;92.00;;;;;;5033384;28;20027;-73
2022/10/23 05:38:21;;;;;;;15.45;9.73;;;20.20;92.10;;;;;;5033543;28;20033;-73
2022/10/23 05:40:47;;;;;;;15.95;10.10;;;20.20;92.30;;;;;;5033397;28;20079;-74
2022/10/23 05:43:12;;;;;;;16.60;9.70;;;20.20;92.00;;;;;;5033174;28;20029;-74
2022/10/23 05:45:38;;;;;;;19.05;9.68;;;20.20;92.00;;;;;;5033160;28;20033;-74
2022/10/23 05:48:04;;;;;;;17.40;9.95;;;20.20;91.90;;;;;;5033242;28;20120;-73
2022/10/23 05:50:30;;;;;;;18.27;9.85;;;20.20;92.00;;;;;;5032991;28;20470;-74
2022/10/23 05:52:55;;;;;;;18.75;9.80;;;20.30;92.00;;;;;;5033119;28;20029;-74
2022/10/23 05:55:21;;;;;;;16.10;10.20;;;20.30;91.90;;;;;;5032970;28;20021;-74
2022/10/23 05:57:47;;;;;;;16.73;9.82;;;20.30;91.90;;;;;;5033068;28;20438;-73
2022/10/23 06:00:13;;;;;;;16.45;9.57;;;20.30;91.80;;;;;;5038665;28;20024;-74
2022/10/23 06:02:38;;;;;;;16.73;9.60;;;20.20;91.80;;;;;;5053476;28;20028;-73
2022/10/23 06:05:04;;;;;;;15.43;9.90;;;20.20;91.80;;;;;;5054021;28;20032;-74
2022/10/23 06:07:30;;;;;;;19.90;10.23;;;20.30;91.70;;;;;;5053584;28;20017;-75
2022/10/23 06:09:56;;;;;;;16.45;10.55;;;20.20;91.60;;;;;;5053561;28;20044;-74
2022/10/23 06:12:22;;;;;;;14.85;9.75;;;20.30;91.70;;;;;;5053058;28;20025;-74
2022/10/23 06:14:48;;;;;;;16.17;9.73;;;20.30;91.60;;;;;;5053274;28;20028;-75
2022/10/23 06:17:14;;;;;;;17.80;10.07;;;20.40;91.50;;;;;;5053487;28;20052;-74
2022/10/23 06:19:42;;;;;;;18.73;10.13;;;20.40;91.40;;;;;;5053382;28;20024;-74
2022/10/23 06:22:08;;;;;;;15.43;9.80;;;20.40;91.30;;;;;;5053290;28;20049;-75
2022/10/23 06:24:33;;;;;;;14.20;9.48;;;20.40;91.20;;;;;;5057019;28;20515;-75
2022/10/23 06:26:59;;;;;;;17.33;10.15;;;20.40;91.10;;;;;;5057840;28;20390;-73
2022/10/23 06:29:25;;;;;;;14.93;9.70;;;20.50;91.10;;;;;;5057565;28;20047;-73
2022/10/23 06:31:50;;;;;;;18.10;10.20;;;20.50;91.00;;;;;;5058126;28;20017;-73
2022/10/23 06:34:16;;;;;;;13.02;9.32;;;20.50;91.00;;;;;;5057191;28;20032;-75
2022/10/23 06:36:42;;;;;;;16.58;9.43;;;20.60;90.90;;;;;;5038745;28;20029;-74
2022/10/23 06:39:09;;;;;;;18.02;9.88;;;20.60;90.80;;;;;;5056777;28;20094;-73
2022/10/23 06:41:34;;;;;;;17.65;10.05;;;20.60;90.80;;;;;;5056997;28;20048;-74
2022/10/23 06:44:00;;;;;;;15.75;9.68;;;20.60;90.80;;;;;;5056899;28;20474;-74
2022/10/23 06:46:28;;;;;;;17.35;9.52;;;20.60;90.70;;;;;;5056485;28;20021;-75
2022/10/23 06:48:54;;;;;;;15.25;9.77;;;20.80;90.60;;;;;;5056697;28;20096;-74
2022/10/23 06:51:21;;;;;;;17.00;9.88;;;20.90;90.60;;;;;;5056690;28;20419;-74
2022/10/23 06:53:47;;;;;;;16.85;9.10;;;21.00;90.50;;;;;;5056798;28;20031;-75
2022/10/23 06:56:13;;;;;;;16.42;10.23;;;21.20;90.30;;;;;;5057041;28;20043;-73
2022/10/23 06:58:39;;;;;;;15.05;9.68;;;21.30;90.10;;;;;;5056667;28;20462;-73
2022/10/23 07:01:10;;;;;;;20.42;10.57;;;21.30;89.80;;;;;;5055695;28;20052;-73
2022/10/23 07:03:36;;;;;;;17.55;10.20;;;21.40;89.40;;;;;;5056768;28;20025;-74
2022/10/23 07:06:04;;;;;;;19.63;10.30;;;21.50;89.20;;;;;;5056849;28;20036;-75
2022/10/23 07:08:30;;;;;;;13.32;8.75;;;21.50;88.90;;;;;;5056622;28;20036;-73
2022/10/23 07:10:56;;;;;;;16.35;9.70;;;21.50;88.70;;;;;;5054965;28;20025;-73
2022/10/23 07:13:23;;;;;;;16.27;10.25;;;21.50;88.60;;;;;;5039016;28;20378;-73
2022/10/23 07:15:49;;;;;;;20.48;10.88;;;21.50;88.70;;;;;;5055692;28;20063;-75
2022/10/23 07:18:15;;;;;;;15.40;9.20;;;21.50;88.50;;;;;;5055358;28;20033;-73
2022/10/23 07:20:42;;;;;;;21.23;10.95;;;21.60;88.30;;;;;;5055540;28;20056;-75
2022/10/23 07:23:10;;;;;;;18.83;10.25;;;21.70;88.20;;;;;;5038088;28;20116;-75
2022/10/23 07:25:36;;;;;;;17.38;10.10;;;21.70;87.90;;;;;;5055901;28;20104;-75
2022/10/23 07:28:03;;;;;;;16.17;9.43;;;21.70;87.70;;;;;;5055888;28;20025;-76
2022/10/23 07:30:29;;;;;;;13.65;9.65;;;21.80;87.60;;;;;;5055579;28;20028;-76
2022/10/23 07:32:55;;;;;;;14.65;9.15;;;21.90;87.40;;;;;;5056296;28;20567;-71
2022/10/23 07:35:21;;;;;;;14.82;9.15;;;21.90;87.60;;;;;;5055782;28;20029;-76
2022/10/23 07:37:47;;;;;;;15.65;9.05;;;21.90;87.50;;;;;;5055776;28;20056;-76
2022/10/23 07:40:13;;;;;;;18.27;9.43;;;21.80;87.20;;;;;;5055784;28;20028;-75
2022/10/23 07:42:39;;;;;;;20.27;10.40;;;21.90;87.30;;;;;;5055599;28;20025;-75
2022/10/23 07:45:07;;;;;;;19.17;11.23;;;21.90;87.00;;;;;;5037868;28;20033;-74
2022/10/23 07:47:33;;;;;;;20.65;10.45;;;21.90;87.30;;;;;;5056205;28;20378;-74
2022/10/23 07:49:59;;;;;;;17.13;11.05;;;22.00;86.90;;;;;;5055611;28;20025;-74
2022/10/23 07:52:25;;;;;;;15.80;10.30;;;22.00;87.10;;;;;;5037812;28;20130;-77
2022/10/23 07:54:51;;;;;;;15.48;10.57;;;22.00;87.00;;;;;;5055311;28;20028;-73
2022/10/23 07:57:17;;;;;;;20.35;10.75;;;22.00;87.10;;;;;;5055017;28;20182;-73
2022/10/23 07:59:43;;;;;;;14.50;10.10;;;22.00;87.20;;;;;;5055573;28;20508;-75
2022/10/23 08:02:11;;;;;;;15.02;10.25;;;21.90;86.90;;;;;;5055434;28;20025;-74
2022/10/23 08:04:37;;;;;;;14.85;10.10;;;22.00;86.70;;;;;;5047896;28;20124;-78
2022/10/23 08:07:03;;;;;;;17.98;9.25;;;22.00;87.20;;;;;;5055846;28;20021;-81
2022/10/23 08:09:29;;;;;;;16.95;10.48;;;22.10;86.50;;;;;;5054535;28;20036;-77
2022/10/23 08:11:54;;;;;;;16.45;10.75;;;22.10;86.40;;;;;;5055269;28;20031;-75
2022/10/23 08:14:20;;;;;;;16.83;10.07;;;22.20;86.10;;;;;;5055003;28;20033;-75
2022/10/23 08:16:46;;;;;;;16.77;9.77;;;22.30;85.70;;;;;;5045881;28;20477;-75
2022/10/23 08:19:12;;;;;;;21.92;10.85;;;22.50;85.50;;;;;;5043422;28;20035;-74
2022/10/23 08:21:37;;;;;;;13.52;9.13;;;22.60;84.90;;;;;;5044258;28;20035;-76
2022/10/23 08:24:03;;;;;;;17.55;9.93;;;22.70;84.80;;;;;;5048332;28;20446;-74
2022/10/23 08:26:29;;;;;;;17.83;9.60;;;22.80;85.00;;;;;;5043392;28;20450;-74
2022/10/23 08:28:57;;;;;;;17.15;9.70;;;22.90;84.50;;;;;;5049816;28;20044;-73
2022/10/23 08:31:23;;;;;;;14.23;9.07;;;23.10;84.20;;;;;;5054871;28;20029;-73
2022/10/23 08:33:49;;;;;;;14.43;9.15;;;23.20;83.70;;;;;;5054629;28;20029;-71
2022/10/23 08:36:19;;;;;;;15.25;8.95;;;23.40;83.70;;;;;;5054797;28;20024;-72
2022/10/23 08:38:47;;;;;;;14.50;9.15;;;23.50;83.30;;;;;;5037048;28;20033;-77
2022/10/23 08:41:34;;;;;;;23.77;9.13;;;23.60;84.30;;;;;;5054784;28;20496;-74
2022/10/23 08:44:08;;;;;;;15.30;9.30;;;23.60;83.60;;;;;;5041846;28;20041;-75
2022/10/23 08:46:41;;;;;;;13.43;8.77;;;23.70;84.50;;;;;;5054259;28;20355;-71
2022/10/23 08:49:32;;;;;;;13.87;9.10;;;23.80;83.50;;;;;;5054285;28;20029;-75
2022/10/23 08:52:01;;;;;;;21.25;9.55;;;23.80;84.40;;;;;;5054575;28;20528;-74
2022/10/23 08:54:51;;;;;;;16.05;8.90;;;23.80;83.20;;;;;;5049147;28;20111;-75
2022/10/23 08:57:21;;;;;;;18.83;8.63;;;23.90;83.30;;;;;;5034268;28;20498;-78
2022/10/23 08:59:57;;;;;;;13.98;9.60;;;24.00;83.40;;;;;;5034477;28;20024;-73
2022/10/23 09:02:40;;;;;;;13.65;8.60;;;24.10;82.90;;;;;;5034234;28;20029;-78
2022/10/23 09:05:32;;;;;;;23.45;9.23;;;24.10;82.60;;;;;;5034291;28;20108;-76
2022/10/23 09:08:47;;;;;;;12.27;8.80;;;24.30;82.40;;;;;;5045340;28;20021;-79
2022/10/23 09:11:22;;;;;;;;;;;24.30;82.80;;;;;;5018807;28;20023;-75
2022/10/23 09:13:57;;;;;;;12.65;8.38;;;24.40;81.90;;;;;;5042847;28;19999;-77
2022/10/23 09:16:41;;;;;;;13.82;8.13;;;24.40;81.60;;;;;;5043238;28;20108;-75
2022/10/23 09:19:15;;;;;;;17.10;9.48;;;24.40;81.30;;;;;;5043762;28;20103;-79
2022/10/23 09:21:41;;;;;;;19.48;9.70;;;24.40;81.10;;;;;;5043639;28;20026;-77
2022/10/23 09:24:16;;;;;;;21.30;11.50;;;24.50;81.00;;;;;;5024099;28;20056;-75
2022/10/23 09:26:47;;;;;;;19.80;10.68;;;24.50;80.90;;;;;;5044559;28;20056;-74
2022/10/23 09:29:34;;;;;;;21.70;10.20;;;24.50;80.70;;;;;;5008169;28;20598;-77
2022/10/23 09:32:02;;;;;;;21.33;10.60;;;24.60;81.70;;;;;;5041107;28;20037;-76
2022/10/23 09:34:30;;;;;;;21.52;10.80;;;24.70;80.90;;;;;;5033683;28;20021;-77
2022/10/23 09:37:31;;;;;;;18.55;11.43;;;24.70;80.40;;;;;;5019268;28;20428;-76
2022/10/23 09:40:28;;;;;;;19.23;11.30;;;24.80;81.30;;;;;;5023102;28;20466;-75
2022/10/23 09:43:02;;;;;;;13.35;8.20;;;24.90;81.00;;;;;;5033731;28;20029;-75
2022/10/23 09:45:31;;;;;;;13.27;9.48;;;24.90;80.80;;;;;;5051055;28;20033;-77
2022/10/23 09:48:05;;;;;;;16.33;9.63;;;24.90;79.80;;;;;;5053200;28;20029;-76
2022/10/23 09:50:31;;;;;;;16.08;9.45;;;24.90;80.10;;;;;;5053649;28;20104;-78
2022/10/23 09:52:58;;;;;;;16.65;9.63;;;24.90;79.90;;;;;;5053275;28;20105;-76
2022/10/23 09:55:25;;;;;;;13.30;9.43;;;25.00;79.50;;;;;;5053819;28;20599;-75
2022/10/23 09:57:52;;;;;;;15.70;10.10;;;25.00;79.20;;;;;;5052709;28;20123;-75
2022/10/23 10:00:26;;;;;;;17.48;9.18;;;25.10;78.50;;;;;;5053346;28;20031;-75
2022/10/23 10:02:59;;;;;;;;;;;25.10;78.50;;;;;;5053999;28;20032;-75
2022/10/23 10:05:31;;;;;;;16.00;11.60;;;25.10;78.50;;;;;;5053270;28;19971;-76
2022/10/23 10:08:18;;;;;;;17.90;10.07;;;25.10;78.60;;;;;;5053320;28;20052;-76
2022/10/23 10:10:59;;;;;;;15.90;9.60;;;25.10;79.00;;;;;;5053228;28;20032;-76
2022/10/23 10:13:36;;;;;;;13.18;8.93;;;25.10;78.10;;;;;;5052049;28;20108;-75
2022/10/23 10:16:23;;;;;;;14.40;9.02;;;25.20;78.40;;;;;;5053181;28;20029;-75
2022/10/23 10:19:15;;;;;;;13.00;9.00;;;25.20;78.10;;;;;;5053268;28;20078;-76
2022/10/23 10:22:03;;;;;;;13.98;9.05;;;25.20;78.10;;;;;;5053482;28;20025;-75
2022/10/23 10:24:46;;;;;;;9.85;7.97;;;25.20;78.00;;;;;;5052872;28;20043;-76
2022/10/23 10:27:26;;;;;;;12.95;8.80;;;25.20;77.50;;;;;;5053055;28;20017;-75
2022/10/23 10:29:55;;;;;;;15.73;8.85;;;25.30;77.60;;;;;;5052872;28;20029;-75
2022/10/23 10:32:44;;;;;;;17.35;8.68;;;25.40;77.30;;;;;;5053275;28;20032;-74
2022/10/23 10:35:19;;;;;;;13.75;8.45;;;25.40;76.40;;;;;;5033341;28;20090;-75
2022/10/23 10:37:54;;;;;;;13.70;8.80;;;25.50;76.70;;;;;;5052846;28;20039;-75
2022/10/23 10:40:34;;;;;;;18.15;8.13;;;25.50;76.00;;;;;;5051563;28;20071;-77
2022/10/23 10:43:29;;;;;;;12.25;8.13;;;25.60;75.90;;;;;;5053222;28;20025;-75
2022/10/23 10:45:59;;;;;;;12.13;7.65;;;25.70;75.50;;;;;;5049804;28;20596;-75
2022/10/23 10:48:36;;;;;;;14.70;8.20;;;25.70;75.00;;;;;;5052939;28;20023;-75
2022/10/23 10:51:06;;;;;;;12.23;7.75;;;25.80;74.60;;;;;;5051641;28;20033;-75
2022/10/23 10:53:47;;;;;;;11.52;8.20;;;25.80;74.80;;;;;;5052823;28;20505;-75
2022/10/23 10:56:15;;;;;;;12.70;7.95;;;25.90;74.50;;;;;;5071755;22;20459;-68
2022/10/23 10:58:55;;;;;;;13.02;8.40;;;25.90;74.50;;;;;;5072455;28;20021;-68
2022/10/23 11:01:38;;;;;;;14.20;8.15;;;25.90;74.50;;;;;;5071809;28;20070;-68
2022/10/23 11:04:22;;;;;;;16.17;9.05;;;25.90;73.40;;;;;;5055230;28;20443;-68
2022/10/23 11:06:52;;;;;;;28.45;11.02;;;25.90;73.30;;;;;;5068222;28;20059;-68
2022/10/23 11:09:29;;;;;;;24.77;10.57;;;25.90;77.40;;;;;;5094357;28;20048;-69
2022/10/23 11:11:55;;;;;;;15.43;8.13;;;25.90;74.50;;;;;;5096343;28;20032;-73
2022/10/23 11:14:26;;;;;;;14.73;8.45;;;25.90;75.40;;;;;;5077863;28;20511;-69
2022/10/23 11:16:59;;;;;;;15.32;9.38;;;25.90;77.70;;;;;;5096048;28;20020;-70
2022/10/23 11:20:00;;;;;;;15.02;9.60;;;26.00;73.90;;;;;;5096340;28;20028;-71
2022/10/23 11:22:51;;;;;;;13.23;9.52;;;26.10;73.40;;;;;;5051125;28;20031;-66
2022/10/23 11:25:53;;;;;;;52.53;18.38;;;26.20;74.30;;;;;;5096370;28;20028;-74
2022/10/23 11:28:46;;;;;;;30.23;14.27;;;26.30;72.90;;;;;;5096103;28;20054;-70
2022/10/23 11:31:47;;;;;;;36.90;14.45;;;26.30;74.10;;;;;;5078057;28;20099;-69
2022/10/23 11:34:32;;;;;;;34.42;15.63;;;26.30;72.80;;;;;;5041484;28;20065;-69
2022/10/23 11:37:03;;;;;;;24.30;9.70;;;26.40;72.90;;;;;;5096208;28;20052;-71
2022/10/23 11:39:34;;;;;;;13.95;8.05;;;26.50;75.30;;;;;;5095904;28;20469;-69
2022/10/23 11:42:06;;;;;;;20.70;11.07;;;26.60;72.40;;;;;;5095846;28;20111;-70
2022/10/23 11:44:42;;;;;;;26.00;12.60;;;26.80;72.90;;;;;;5095760;28;20032;-69
2022/10/23 11:47:33;;;;;;;23.52;13.18;;;26.90;71.20;;;;;;5095520;28;20385;-71
2022/10/23 11:50:07;;;;;;;27.90;17.85;;;27.00;70.60;;;;;;5095910;28;20358;-70
2022/10/23 11:52:55;;;;;;;20.98;12.10;;;26.90;71.70;;;;;;5095594;28;20028;-68
2022/10/23 11:55:24;;;;;;;20.48;13.23;;;26.90;71.00;;;;;;5095876;28;20031;-69
2022/10/23 11:58:18;;;;;;;24.90;13.55;;;26.80;72.10;;;;;;5095443;28;20550;-69
2022/10/23 12:01:44;;;;;;;15.30;12.15;;;26.80;72.10;;;;;;5085196;28;20449;-70
2022/10/23 12:04:12;;;;;;;28.80;15.25;;;26.80;71.10;;;;;;5036949;28;20048;-70
2022/10/23 12:06:40;;;;;;;23.88;16.33;;;26.80;71.80;;;;;;5075404;28;20047;-69
2022/10/23 12:09:22;;;;;;;21.90;16.50;;;26.80;71.70;;;;;;5075231;28;20028;-69
2022/10/23 12:11:59;;;;;;;14.82;10.73;;;26.90;71.50;;;;;;5075145;28;20458;-70
2022/10/23 12:14:30;;;;;;;12.82;9.07;;;26.90;71.40;;;;;;5075152;28;20021;-72
2022/10/23 12:16:56;;;;;;;15.55;9.15;;;27.00;71.50;;;;;;5074763;28;20432;-69
2022/10/23 12:19:24;;;;;;;16.98;9.45;;;27.10;71.10;;;;;;5075187;28;20020;-69
2022/10/23 12:21:53;;;;;;;15.40;9.18;;;27.10;70.90;;;;;;5073978;28;20112;-70
2022/10/23 12:24:40;;;;;;;13.07;8.95;;;27.10;71.00;;;;;;5074849;28;20112;-71
2022/10/23 12:27:18;;;;;;;10.95;7.30;;;27.10;70.70;;;;;;5074838;28;20023;-72
2022/10/23 12:30:15;;;;;;;13.45;7.68;;;27.00;70.50;;;;;;5074807;28;20020;-70
2022/10/23 12:32:57;;;;;;;13.55;8.13;;;26.90;70.30;;;;;;5074340;28;20379;-70
2022/10/23 12:35:25;;;;;;;12.13;8.05;;;27.00;69.60;;;;;;5052938;28;20481;-70
2022/10/23 12:38:01;;;;;;;11.65;7.53;;;27.00;69.50;;;;;;5073769;28;20043;-71
2022/10/23 12:40:28;;;;;;;14.30;7.55;;;27.00;69.20;;;;;;5072285;28;20478;-71
2022/10/23 12:42:57;;;;;;;15.95;7.72;;;27.10;69.80;;;;;;5065774;28;20029;-70
2022/10/23 12:45:29;;;;;;;13.15;7.72;;;27.10;69.60;;;;;;5062867;28;20029;-70
2022/10/23 12:47:55;;;;;;;13.52;6.97;;;27.10;69.60;;;;;;5064491;28;20493;-70
2022/10/23 12:50:27;;;;;;;13.32;6.65;;;27.10;69.10;;;;;;5064151;28;20032;-70
2022/10/23 12:53:02;;;;;;;10.35;7.35;;;27.10;68.80;;;;;;5079500;28;20035;-71
2022/10/23 12:56:03;;;;;;;15.90;7.38;;;27.10;68.10;;;;;;5073546;28;20491;-73
2022/10/23 12:58:33;;;;;;;15.50;7.55;;;27.10;68.40;;;;;;5087314;28;20489;-70